Portada
METAR-TAF:

METAR-TAF

Aeroports :

Lahore, Pakistan

latitud: 31-31N, longitud: 074-24E, altitud: 216 m

Observació

L'informe es va fer fa 19 minuts, a les 10:55 UTC
Vent 8 kt del Sud
Temperatura 39°C
Humitat 28%
Pressió 997 hPa
Visibilitat: 6000 m

METAR: OPLA 251055Z 17008KT 6000 NSC 39/17 Q0997 NOSIG RMK QFE970 A29.47

Hora: 16:14 (11:14 UTC)

Pronòstic

L'informe es va fer fa 7 hores i 29 minuts, a les 03:45 UTC
Pronòstic vàlid del 25 a les 06 UTC al 26 a les 12 UTC
Vent 8 kt del Oest/Sud-Oest
Visibilitat: 4000 m
calitja
Temporalment
l' 25 a les 08 UTC al 25 a les 12 UTC
Vent 15 kt del Oest/Sud-Oest amb ràfegues de 25 kt
Visibilitat: 6000 m

TAF: OPLA 250345Z 2506/2612 24008KT 4000 HZ NSC TX42/2610Z TN30/2600Z TEMPO 2508/2512 24015G25KT 6000

Observacions i pronòstics meteorològics de més de 4000 aeroports (METAR i TAF).

Les estacions disponibles són els punts grocs i vermells al mapa.

Posi el ratolí al punt desitjat per veure el nom de l'estació.

Feu clic per veure les observacions i els pronòstics meteorològics.

Per canviar el mapa: feu clic els botons verds amb una creu de color negre per apropar; al botó verd amb un guió per allunyar la imatge; o en les fletxes verdes per a mapes adjacents.


METAR-TAF: